createdAt,value
2018-06-15T00:02:14.919Z,11.77
2018-06-15T00:04:43.053Z,11.30
2018-06-15T00:07:11.214Z,10.63
2018-06-15T00:09:39.348Z,9.67
2018-06-15T00:12:07.445Z,9.57
2018-06-15T00:14:35.740Z,9.83
2018-06-15T00:17:03.969Z,9.50
2018-06-15T00:19:32.081Z,10.40
2018-06-15T00:22:00.176Z,8.77
2018-06-15T00:24:28.304Z,10.40
2018-06-15T00:26:56.415Z,10.10
2018-06-15T00:29:24.553Z,9.57
2018-06-15T00:31:52.653Z,9.00
2018-06-15T00:34:20.757Z,8.30
2018-06-15T00:36:48.881Z,8.67
2018-06-15T00:39:16.988Z,8.93
2018-06-15T00:41:45.628Z,8.73
2018-06-15T00:44:13.772Z,10.10
2018-06-15T00:46:42.267Z,8.93
2018-06-15T00:49:10.414Z,8.80
2018-06-15T00:51:38.739Z,8.23
2018-06-15T00:54:06.826Z,6.60
2018-06-15T00:56:39.455Z,7.53
2018-06-15T00:59:07.563Z,7.13
2018-06-15T01:01:35.675Z,7.10
2018-06-15T01:04:03.799Z,6.27
2018-06-15T01:06:31.911Z,6.10
2018-06-15T01:09:00.017Z,5.97
2018-06-15T01:11:28.127Z,5.40
2018-06-15T01:13:56.213Z,5.80
2018-06-15T01:16:24.320Z,5.10
2018-06-15T01:18:52.418Z,5.67
2018-06-15T01:21:20.540Z,4.90
2018-06-15T01:23:48.640Z,5.00
2018-06-15T01:26:16.750Z,5.73
2018-06-15T01:28:44.867Z,4.60
2018-06-15T01:31:12.972Z,5.60
2018-06-15T01:33:41.067Z,5.30
2018-06-15T01:36:09.185Z,5.27
2018-06-15T01:38:37.291Z,5.30
2018-06-15T01:41:05.409Z,5.80
2018-06-15T01:43:33.504Z,6.00
2018-06-15T01:46:01.608Z,6.50
2018-06-15T01:48:29.812Z,6.90
2018-06-15T01:50:57.948Z,5.70
2018-06-15T01:53:26.054Z,6.00
2018-06-15T01:55:54.255Z,5.40
2018-06-15T01:58:22.531Z,6.17
2018-06-15T02:00:50.631Z,5.80
2018-06-15T02:03:18.739Z,5.87
2018-06-15T02:05:46.839Z,6.87
2018-06-15T02:08:15.151Z,7.60
2018-06-15T02:10:43.264Z,5.67
2018-06-15T02:13:11.357Z,6.50
2018-06-15T02:15:39.481Z,6.10
2018-06-15T02:18:07.592Z,7.40
2018-06-15T02:20:35.706Z,5.83
2018-06-15T02:23:03.805Z,7.03
2018-06-15T02:25:31.924Z,6.70
2018-06-15T02:28:00.117Z,7.80
2018-06-15T02:30:28.227Z,7.20
2018-06-15T02:32:56.336Z,6.87
2018-06-15T02:35:24.463Z,6.70
2018-06-15T02:37:52.691Z,6.80
2018-06-15T02:40:20.824Z,7.87
2018-06-15T02:42:48.939Z,8.03
2018-06-15T02:45:17.118Z,8.63
2018-06-15T02:47:45.166Z,8.50
2018-06-15T02:50:13.322Z,8.83
2018-06-15T02:52:41.447Z,9.57
2018-06-15T02:55:09.615Z,9.60
2018-06-15T02:57:37.747Z,9.07
2018-06-15T03:00:05.871Z,10.00
2018-06-15T03:02:33.994Z,9.60
2018-06-15T03:05:02.109Z,10.70
2018-06-15T03:07:30.240Z,10.37
2018-06-15T03:09:58.365Z,12.97
2018-06-15T03:12:26.507Z,10.77
2018-06-15T03:14:54.632Z,10.90
2018-06-15T03:17:22.759Z,11.20
2018-06-15T03:19:50.879Z,11.40
2018-06-15T03:22:18.987Z,10.83
2018-06-15T03:24:47.091Z,12.77
2018-06-15T03:27:15.207Z,12.53
2018-06-15T03:29:43.338Z,12.00
2018-06-15T03:32:11.457Z,10.97
2018-06-15T03:34:39.559Z,11.40
2018-06-15T03:37:07.677Z,12.57
2018-06-15T03:39:35.780Z,12.57
2018-06-15T03:42:03.892Z,13.90
2018-06-15T03:44:32.015Z,15.87
2018-06-15T03:47:00.124Z,15.10
2018-06-15T03:49:28.231Z,14.23
2018-06-15T03:51:56.353Z,17.43
2018-06-15T03:54:24.494Z,15.00
2018-06-15T03:56:52.607Z,16.20
2018-06-15T03:59:20.788Z,16.93
2018-06-15T04:01:48.890Z,15.13
2018-06-15T04:04:17.005Z,14.10
2018-06-15T04:06:45.104Z,14.43
2018-06-15T04:09:13.231Z,14.63
2018-06-15T04:11:41.335Z,16.70
2018-06-15T04:14:09.451Z,17.53
2018-06-15T04:16:37.559Z,17.30
2018-06-15T04:19:05.670Z,15.90
2018-06-15T04:21:33.559Z,17.20
2018-06-15T04:24:01.736Z,19.47
2018-06-15T04:26:29.840Z,17.80
2018-06-15T04:28:57.955Z,19.43
2018-06-15T04:31:26.060Z,18.83
2018-06-15T04:33:54.203Z,19.17
2018-06-15T04:36:22.308Z,18.37
2018-06-15T04:38:50.414Z,17.93
2018-06-15T04:41:18.534Z,19.10
2018-06-15T04:43:46.659Z,18.70
2018-06-15T04:46:14.823Z,18.87
2018-06-15T04:48:42.936Z,19.20
2018-06-15T04:51:11.055Z,18.10
2018-06-15T04:53:39.176Z,21.00
2018-06-15T04:56:07.311Z,20.07
2018-06-15T04:58:35.480Z,21.57
2018-06-15T05:01:03.591Z,18.20
2018-06-15T05:03:31.719Z,21.30
2018-06-15T05:05:59.840Z,18.37
2018-06-15T05:08:27.964Z,18.70
2018-06-15T05:10:56.083Z,20.20
2018-06-15T05:13:24.195Z,18.27
2018-06-15T05:15:52.322Z,16.60
2018-06-15T05:18:20.439Z,15.03
2018-06-15T05:20:48.571Z,18.03
2018-06-15T05:23:16.697Z,17.67
2018-06-15T05:25:44.899Z,17.33
2018-06-15T05:28:12.995Z,17.10
2018-06-15T05:30:41.121Z,14.50
2018-06-15T05:33:09.234Z,14.40
2018-06-15T05:35:37.363Z,14.70
2018-06-15T05:38:05.485Z,13.20
2018-06-15T05:40:33.615Z,16.93
2018-06-15T05:43:01.844Z,15.47
2018-06-15T05:45:30.010Z,14.63
2018-06-15T05:47:58.128Z,14.33
2018-06-15T05:50:26.264Z,15.30
2018-06-15T05:52:54.377Z,12.97
2018-06-15T05:55:22.539Z,13.27
2018-06-15T05:57:50.663Z,13.33
2018-06-15T06:00:18.821Z,13.83
2018-06-15T06:02:46.940Z,12.60
2018-06-15T06:05:15.073Z,12.33
2018-06-15T06:07:43.175Z,13.20
2018-06-15T06:10:11.312Z,13.70
2018-06-15T06:12:39.468Z,13.83
2018-06-15T06:15:07.597Z,14.27
2018-06-15T06:17:35.727Z,14.43
2018-06-15T06:20:03.873Z,12.20
2018-06-15T06:22:31.972Z,13.43
2018-06-15T06:25:00.092Z,13.33
2018-06-15T06:27:28.230Z,13.73
2018-06-15T06:29:56.404Z,13.90
2018-06-15T06:32:24.536Z,13.87
2018-06-15T06:34:52.670Z,12.90
2018-06-15T06:37:20.837Z,13.77
2018-06-15T06:39:48.967Z,12.07
2018-06-15T06:42:17.117Z,14.53
2018-06-15T06:44:45.228Z,13.53
2018-06-15T06:47:13.355Z,15.07
2018-06-15T06:49:41.469Z,15.10
2018-06-15T06:52:09.608Z,14.20
2018-06-15T06:54:37.736Z,13.23
2018-06-15T06:57:05.854Z,13.03
2018-06-15T06:59:33.989Z,12.77
2018-06-15T07:02:02.448Z,13.53
2018-06-15T07:04:30.567Z,13.67
2018-06-15T07:06:58.697Z,14.40
2018-06-15T07:09:26.817Z,15.60
2018-06-15T07:11:54.944Z,15.97
2018-06-15T07:14:23.062Z,15.00
2018-06-15T07:16:51.183Z,15.07
2018-06-15T07:19:19.283Z,16.33
2018-06-15T07:21:47.238Z,16.47
2018-06-15T07:24:15.344Z,15.77
2018-06-15T07:26:43.451Z,12.60
2018-06-15T07:29:11.566Z,12.17
2018-06-15T07:31:39.689Z,10.27
2018-06-15T07:34:07.796Z,10.27
2018-06-15T07:36:35.911Z,10.67
2018-06-15T07:39:05.875Z,9.43
2018-06-15T07:41:33.991Z,7.23
2018-06-15T07:44:02.100Z,7.70
2018-06-15T07:46:30.219Z,6.63
2018-06-15T07:48:58.504Z,5.40
2018-06-15T07:51:26.616Z,6.27
2018-06-15T07:53:54.713Z,6.53
2018-06-15T07:56:22.815Z,6.60
2018-06-15T07:58:50.904Z,5.47
2018-06-15T08:01:19.102Z,5.80
2018-06-15T08:03:52.567Z,5.57
2018-06-15T08:06:20.674Z,5.33
2018-06-15T08:08:48.776Z,5.60
2018-06-15T08:11:16.892Z,6.90
2018-06-15T08:13:44.989Z,7.00
2018-06-15T08:16:13.120Z,7.27
2018-06-15T08:18:41.297Z,6.73
2018-06-15T08:21:09.423Z,6.50
2018-06-15T08:23:37.575Z,7.60
2018-06-15T08:26:05.823Z,7.93
2018-06-15T08:28:33.944Z,8.10
2018-06-15T08:31:02.056Z,8.00
2018-06-15T08:33:30.195Z,8.90
2018-06-15T08:35:58.323Z,9.77
2018-06-15T08:38:26.478Z,9.40
2018-06-15T08:40:54.607Z,10.20
2018-06-15T08:43:22.763Z,10.80
2018-06-15T08:45:50.882Z,12.10
2018-06-15T08:48:19.019Z,13.07
2018-06-15T08:50:47.140Z,13.73
2018-06-15T08:53:15.263Z,10.53
2018-06-15T08:55:43.383Z,10.20
2018-06-15T08:58:11.510Z,10.10
2018-06-15T09:00:39.622Z,10.60
2018-06-15T09:03:07.757Z,8.00
2018-06-15T09:05:35.651Z,7.70
2018-06-15T09:08:03.772Z,9.40
2018-06-15T09:10:31.906Z,7.20
2018-06-15T09:13:00.039Z,8.73
2018-06-15T09:15:28.183Z,8.17
2018-06-15T09:17:56.319Z,7.87
2018-06-15T09:20:24.430Z,8.43
2018-06-15T09:22:52.557Z,8.23
2018-06-15T09:25:20.672Z,7.97
2018-06-15T09:27:48.788Z,6.63
2018-06-15T09:30:16.899Z,7.33
2018-06-15T09:32:45.073Z,7.20
2018-06-15T09:35:13.163Z,7.57
2018-06-15T09:37:41.286Z,7.40
2018-06-15T09:41:12.834Z,7.67
2018-06-15T09:43:40.955Z,6.60
2018-06-15T09:46:09.072Z,6.37
2018-06-15T09:48:41.146Z,7.50
2018-06-15T09:51:09.212Z,7.57
2018-06-15T09:53:37.360Z,7.43
2018-06-15T09:56:05.882Z,10.10
2018-06-15T09:58:34.011Z,7.43
2018-06-15T10:01:10.312Z,5.80
2018-06-15T10:03:39.307Z,6.40
2018-06-15T10:06:07.441Z,7.50
2018-06-15T10:08:36.302Z,5.63
2018-06-15T10:11:04.860Z,5.70
2018-06-15T10:13:33.005Z,5.87
2018-06-15T10:16:01.124Z,5.70
2018-06-15T10:18:29.227Z,5.70
2018-06-15T10:20:57.330Z,5.90
2018-06-15T10:23:25.427Z,6.03
2018-06-15T10:25:53.523Z,6.10
2018-06-15T10:28:21.624Z,5.40
2018-06-15T10:30:49.724Z,7.20
2018-06-15T10:33:17.860Z,7.40
2018-06-15T10:35:46.015Z,6.50
2018-06-15T10:38:14.127Z,5.27
2018-06-15T10:40:42.232Z,6.20
2018-06-15T10:43:10.327Z,5.00
2018-06-15T10:45:38.445Z,6.07
2018-06-15T10:48:06.527Z,5.30
2018-06-15T10:50:34.635Z,4.47
2018-06-15T10:53:02.727Z,3.60
2018-06-15T10:55:30.830Z,2.03
2018-06-15T10:57:58.935Z,4.20
2018-06-15T11:00:27.048Z,3.73
2018-06-15T11:02:55.160Z,5.20
2018-06-15T11:05:23.391Z,6.13
2018-06-15T11:07:51.523Z,5.70
2018-06-15T11:10:19.651Z,5.50
2018-06-15T11:12:47.755Z,6.23
2018-06-15T11:15:15.867Z,5.10
2018-06-15T11:17:44.006Z,5.43
2018-06-15T11:20:12.203Z,4.90
2018-06-15T11:22:40.309Z,5.20
2018-06-15T11:25:08.432Z,4.30
2018-06-15T11:27:36.642Z,4.23
2018-06-15T11:30:05.295Z,3.60
2018-06-15T11:32:33.408Z,4.00
2018-06-15T11:35:01.539Z,4.37
2018-06-15T11:37:29.664Z,4.80
2018-06-15T11:39:57.796Z,4.60
2018-06-15T11:42:25.900Z,3.10
2018-06-15T11:44:54.282Z,4.00
2018-06-15T11:47:22.411Z,3.73
2018-06-15T11:49:50.536Z,3.80
2018-06-15T11:52:18.652Z,4.03
2018-06-15T11:54:46.780Z,3.80
2018-06-15T11:57:14.901Z,4.17
2018-06-15T11:59:43.047Z,4.40
2018-06-15T12:02:11.164Z,3.93
2018-06-15T12:04:39.486Z,3.80
2018-06-15T12:07:07.781Z,3.83
2018-06-15T12:09:35.891Z,3.10
2018-06-15T12:12:04.039Z,3.13
2018-06-15T12:14:32.161Z,3.30
2018-06-15T12:17:00.271Z,3.93
2018-06-15T12:19:28.371Z,3.20
2018-06-15T12:21:56.491Z,3.30
2018-06-15T12:24:24.594Z,3.03
2018-06-15T12:26:52.715Z,3.43
2018-06-15T12:29:20.823Z,2.83
2018-06-15T12:31:48.919Z,3.10
2018-06-15T12:34:17.098Z,3.20
2018-06-15T12:36:45.115Z,3.57
2018-06-15T12:39:13.224Z,3.20
2018-06-15T12:41:41.323Z,2.40
2018-06-15T12:44:09.443Z,3.20
2018-06-15T12:46:37.568Z,2.70
2018-06-15T12:49:05.778Z,2.90
2018-06-15T12:51:33.903Z,3.10
2018-06-15T12:54:02.020Z,3.70
2018-06-15T12:56:30.132Z,3.40
2018-06-15T12:58:58.270Z,3.10
2018-06-15T13:01:26.388Z,3.30
2018-06-15T13:03:55.053Z,4.17
2018-06-15T13:06:23.237Z,4.00
2018-06-15T13:08:51.339Z,4.30
2018-06-15T13:11:19.469Z,3.80
2018-06-15T13:13:47.580Z,4.40
2018-06-15T13:16:15.687Z,3.73
2018-06-15T13:18:43.781Z,3.57
2018-06-15T13:21:11.916Z,7.43
2018-06-15T13:23:40.030Z,6.60
2018-06-15T13:26:08.148Z,7.10
2018-06-15T13:28:36.263Z,6.53
2018-06-15T13:31:04.461Z,5.83
2018-06-15T13:33:32.575Z,7.70
2018-06-15T13:36:00.705Z,6.70
2018-06-15T13:38:28.820Z,7.20
2018-06-15T13:40:56.956Z,6.60
2018-06-15T13:43:25.127Z,6.30
2018-06-15T13:45:53.257Z,6.83
2018-06-15T13:48:21.603Z,6.67
2018-06-15T13:50:49.727Z,5.63
2018-06-15T13:53:17.850Z,7.23
2018-06-15T13:55:45.964Z,5.60
2018-06-15T13:58:14.083Z,6.97
2018-06-15T14:00:42.488Z,6.27
2018-06-15T14:03:10.782Z,5.50
2018-06-15T14:05:38.892Z,6.63
2018-06-15T14:08:06.999Z,5.67
2018-06-15T14:10:35.104Z,4.90
2018-06-15T14:13:03.034Z,4.70
2018-06-15T14:15:31.229Z,4.77
2018-06-15T14:17:59.390Z,4.57
2018-06-15T14:20:27.490Z,5.07
2018-06-15T14:22:55.609Z,4.23
2018-06-15T14:25:23.699Z,4.87
2018-06-15T14:27:51.800Z,4.90
2018-06-15T14:30:19.908Z,4.50
2018-06-15T14:32:48.488Z,4.70
2018-06-15T14:35:16.607Z,4.23
2018-06-15T14:37:44.715Z,3.87
2018-06-15T14:40:12.831Z,4.13
2018-06-15T14:42:40.967Z,4.20
2018-06-15T14:45:09.129Z,4.33
2018-06-15T14:47:37.237Z,4.87
2018-06-15T14:50:05.336Z,4.57
2018-06-15T14:52:33.459Z,4.73
2018-06-15T14:55:01.591Z,5.10
2018-06-15T14:57:29.716Z,4.80
2018-06-15T14:59:57.824Z,4.60
2018-06-15T15:02:25.930Z,5.23
2018-06-15T15:04:54.091Z,4.07
2018-06-15T15:07:22.145Z,3.67
2018-06-15T15:09:50.251Z,4.87
2018-06-15T15:12:18.438Z,4.07
2018-06-15T15:14:46.578Z,4.83
2018-06-15T15:17:14.640Z,4.00
2018-06-15T15:19:42.742Z,4.20
2018-06-15T15:22:10.848Z,4.87
2018-06-15T15:24:38.939Z,5.27
2018-06-15T15:27:07.067Z,4.57
2018-06-15T15:29:35.168Z,4.43
2018-06-15T15:32:03.388Z,4.40
2018-06-15T15:34:31.723Z,4.10
2018-06-15T15:36:59.830Z,3.50
2018-06-15T15:39:27.948Z,4.37
2018-06-15T15:41:56.059Z,3.70
2018-06-15T15:44:24.190Z,4.27
2018-06-15T15:46:52.300Z,3.60
2018-06-15T15:49:20.919Z,4.30
2018-06-15T15:51:49.043Z,4.07
2018-06-15T15:54:17.154Z,4.57
2018-06-15T15:56:45.256Z,4.00
2018-06-15T15:59:13.459Z,5.27
2018-06-15T16:01:41.559Z,4.73
2018-06-15T16:04:09.671Z,4.67
2018-06-15T16:06:37.799Z,5.10
2018-06-15T16:09:06.735Z,4.00
2018-06-15T16:11:34.975Z,4.60
2018-06-15T16:14:03.091Z,4.30
2018-06-15T16:16:31.203Z,5.07
2018-06-15T16:18:59.323Z,5.13
2018-06-15T16:21:27.429Z,5.00
2018-06-15T16:23:55.525Z,4.60
2018-06-15T16:26:23.653Z,4.43
2018-06-15T16:28:51.960Z,4.70
2018-06-15T16:31:20.067Z,4.20
2018-06-15T16:33:49.003Z,4.67
2018-06-15T16:36:17.108Z,4.60
2018-06-15T16:38:45.215Z,5.10
2018-06-15T16:41:13.316Z,4.10
2018-06-15T16:43:41.415Z,4.00
2018-06-15T16:46:09.527Z,4.00
2018-06-15T16:48:37.676Z,4.10
2018-06-15T16:51:05.771Z,3.67
2018-06-15T16:53:33.891Z,4.63
2018-06-15T16:56:02.032Z,5.07
2018-06-15T16:58:30.155Z,4.27
2018-06-15T17:00:58.264Z,4.33
2018-06-15T17:03:26.436Z,4.47
2018-06-15T17:05:54.567Z,3.60
2018-06-15T17:08:22.679Z,4.50
2018-06-15T17:10:50.790Z,5.67
2018-06-15T17:13:18.900Z,5.60
2018-06-15T17:15:47.014Z,4.53
2018-06-15T17:18:15.151Z,4.27
2018-06-15T17:20:43.359Z,4.27
2018-06-15T17:23:11.476Z,3.93
2018-06-15T17:25:39.589Z,3.97
2018-06-15T17:28:07.721Z,4.00
2018-06-15T17:30:35.850Z,4.67
2018-06-15T17:33:03.967Z,4.50
2018-06-15T17:35:32.109Z,4.30
2018-06-15T17:38:00.254Z,4.50
2018-06-15T17:40:28.378Z,4.47
2018-06-15T17:42:56.499Z,4.07
2018-06-15T17:45:24.695Z,4.43
2018-06-15T17:47:52.807Z,4.90
2018-06-15T17:50:20.937Z,5.00
2018-06-15T17:52:49.042Z,4.60
2018-06-15T17:55:17.154Z,5.17
2018-06-15T17:57:45.345Z,4.00
2018-06-15T18:00:13.414Z,4.40
2018-06-15T18:02:41.548Z,4.30
2018-06-15T18:05:09.679Z,4.23
2018-06-15T18:07:37.811Z,3.93
2018-06-15T18:10:05.952Z,4.57
2018-06-15T18:12:34.099Z,4.40
2018-06-15T18:15:02.306Z,4.50
2018-06-15T18:17:30.457Z,4.87
2018-06-15T18:19:58.519Z,4.73
2018-06-15T18:22:26.624Z,4.40
2018-06-15T18:24:54.743Z,5.80
2018-06-15T18:27:22.918Z,4.60
2018-06-15T18:29:51.020Z,4.80
2018-06-15T18:32:19.132Z,4.30
2018-06-15T18:34:47.236Z,4.63
2018-06-15T18:37:15.338Z,5.40
2018-06-15T18:39:43.464Z,7.00
2018-06-15T18:42:11.346Z,6.10
2018-06-15T18:44:39.495Z,5.33
2018-06-15T18:47:07.619Z,5.10
2018-06-15T18:49:35.747Z,5.23
2018-06-15T18:52:03.856Z,6.13
2018-06-15T18:54:32.024Z,5.50
2018-06-15T18:57:00.068Z,4.60
2018-06-15T18:59:28.207Z,4.10
2018-06-15T19:01:56.333Z,5.37
2018-06-15T19:04:24.427Z,4.70
2018-06-15T19:06:52.541Z,4.67
2018-06-15T19:09:20.631Z,4.53
2018-06-15T19:11:48.529Z,5.13
2018-06-15T19:14:16.647Z,4.50
2018-06-15T19:16:44.829Z,5.00
2018-06-15T19:19:12.867Z,4.53
2018-06-15T19:21:40.992Z,5.00
2018-06-15T19:24:09.090Z,4.93
2018-06-15T19:26:37.269Z,4.80
2018-06-15T19:29:05.356Z,5.23
2018-06-15T19:31:33.278Z,6.30
2018-06-15T19:34:01.396Z,6.20
2018-06-15T19:36:29.523Z,4.87
2018-06-15T19:38:57.619Z,6.33
2018-06-15T19:41:25.777Z,6.03
2018-06-15T19:43:53.927Z,6.97
2018-06-15T19:46:22.041Z,6.70
2018-06-15T19:48:50.155Z,6.30
2018-06-15T19:51:18.263Z,6.50
2018-06-15T19:53:46.359Z,7.50
2018-06-15T19:56:14.479Z,7.00
2018-06-15T19:58:42.586Z,7.13
2018-06-15T20:01:10.723Z,6.90
2018-06-15T20:03:38.828Z,8.13
2018-06-15T20:06:06.968Z,6.10
2018-06-15T20:08:35.156Z,6.47
2018-06-15T20:11:03.284Z,7.33
2018-06-15T20:13:31.477Z,7.63
2018-06-15T20:15:59.607Z,6.80
2018-06-15T20:18:27.734Z,6.57
2018-06-15T20:20:55.848Z,6.50
2018-06-15T20:23:23.980Z,6.47
2018-06-15T20:25:52.100Z,7.10
2018-06-15T20:28:20.247Z,6.40
2018-06-15T20:30:48.455Z,6.57
2018-06-15T20:33:16.547Z,7.40
2018-06-15T20:35:45.120Z,7.73
2018-06-15T20:38:13.251Z,6.17
2018-06-15T20:40:41.377Z,7.17
2018-06-15T20:43:09.499Z,6.90
2018-06-15T20:45:37.624Z,6.67
2018-06-15T20:48:05.784Z,7.63
2018-06-15T20:50:33.904Z,6.30
2018-06-15T20:53:02.107Z,6.57
2018-06-15T20:55:30.232Z,7.10
2018-06-15T20:57:58.361Z,5.80
2018-06-15T21:00:26.476Z,6.80
2018-06-15T21:02:54.599Z,7.20
2018-06-15T21:05:22.747Z,6.60
2018-06-15T21:07:51.059Z,7.50
2018-06-15T21:10:19.344Z,6.67
2018-06-15T21:12:47.890Z,7.00
2018-06-15T21:15:17.409Z,7.43
2018-06-15T21:17:45.559Z,7.03
2018-06-15T21:20:13.652Z,7.03
2018-06-15T21:22:41.779Z,6.30
2018-06-15T21:25:10.567Z,7.60
2018-06-15T21:27:38.679Z,6.60
2018-06-15T21:30:06.808Z,6.77
2018-06-15T21:32:34.928Z,7.33
2018-06-15T21:35:03.046Z,7.43
2018-06-15T21:37:31.175Z,7.23
2018-06-15T21:39:59.282Z,5.87
2018-06-15T21:42:27.398Z,6.63
2018-06-15T21:44:55.504Z,7.27
2018-06-15T21:47:23.642Z,6.67
2018-06-15T21:49:51.602Z,7.47
2018-06-15T21:52:19.708Z,7.27
2018-06-15T21:54:47.806Z,7.67
2018-06-15T21:57:16.001Z,6.80
2018-06-15T21:59:44.159Z,6.80
2018-06-15T22:02:12.283Z,6.60
2018-06-15T22:04:40.380Z,8.17
2018-06-15T22:07:08.498Z,6.80
2018-06-15T22:09:36.608Z,8.40
2018-06-15T22:12:04.757Z,8.60
2018-06-15T22:14:32.859Z,8.20
2018-06-15T22:17:00.996Z,8.23
2018-06-15T22:19:29.203Z,7.93
2018-06-15T22:21:57.332Z,7.60
2018-06-15T22:24:25.459Z,7.73
2018-06-15T22:26:53.686Z,7.40
2018-06-15T22:29:21.807Z,6.80
2018-06-15T22:31:50.072Z,7.30
2018-06-15T22:34:17.968Z,6.60
2018-06-15T22:36:46.207Z,6.97
2018-06-15T22:39:15.618Z,6.90
2018-06-15T22:41:44.223Z,6.70
2018-06-15T22:44:12.986Z,7.50
2018-06-15T22:46:41.867Z,7.37
2018-06-15T22:49:10.772Z,6.97
2018-06-15T22:51:39.251Z,6.73
2018-06-15T22:54:07.372Z,6.60
2018-06-15T22:56:35.524Z,6.33
2018-06-15T22:59:03.680Z,5.93
2018-06-15T23:01:31.828Z,7.00
2018-06-15T23:03:59.998Z,6.97
2018-06-15T23:06:28.099Z,6.60
2018-06-15T23:08:56.213Z,7.90
2018-06-15T23:11:24.328Z,6.33
2018-06-15T23:13:52.624Z,6.67
2018-06-15T23:16:20.849Z,6.90
2018-06-15T23:18:48.971Z,7.10
2018-06-15T23:21:17.115Z,7.37
2018-06-15T23:23:45.244Z,7.13
2018-06-15T23:26:13.368Z,6.27
2018-06-15T23:28:41.491Z,6.97
2018-06-15T23:31:09.602Z,6.90
2018-06-15T23:33:37.729Z,6.73
2018-06-15T23:36:05.859Z,6.10
2018-06-15T23:38:33.974Z,6.60
2018-06-15T23:41:02.116Z,6.07
2018-06-15T23:43:30.356Z,6.33
2018-06-15T23:45:58.463Z,6.23
2018-06-15T23:48:26.587Z,6.00
2018-06-15T23:50:54.706Z,6.60
2018-06-15T23:53:22.902Z,6.07
2018-06-15T23:55:51.030Z,5.37
2018-06-15T23:58:19.132Z,6.37
